createdAt,value
2019-03-02T00:00:27.825Z,95.30
2019-03-02T00:03:34.846Z,95.50
2019-03-02T00:06:39.677Z,95.50
2019-03-02T00:09:44.699Z,95.70
2019-03-02T00:12:50.123Z,96.20
2019-03-02T00:15:55.568Z,96.00
2019-03-02T00:19:02.919Z,96.20
2019-03-02T00:22:07.720Z,96.30
2019-03-02T00:25:13.063Z,96.40
2019-03-02T00:28:18.702Z,96.40
2019-03-02T00:31:23.642Z,96.50
2019-03-02T00:34:28.833Z,96.60
2019-03-02T00:37:35.519Z,96.60
2019-03-02T00:40:40.624Z,96.50
2019-03-02T00:43:45.595Z,96.60
2019-03-02T00:46:50.629Z,96.50
2019-03-02T00:49:57.252Z,96.50
2019-03-02T00:53:02.491Z,96.40
2019-03-02T00:56:08.849Z,96.40
2019-03-02T00:59:14.134Z,96.70
2019-03-02T01:02:19.232Z,96.40
2019-03-02T01:05:24.421Z,96.40
2019-03-02T01:08:31.753Z,96.40
2019-03-02T01:11:36.194Z,96.20
2019-03-02T01:14:41.617Z,96.10
2019-03-02T01:17:46.797Z,96.00
2019-03-02T01:20:51.921Z,96.00
2019-03-02T01:23:59.798Z,95.90
2019-03-02T01:27:03.754Z,95.90
2019-03-02T01:30:12.073Z,95.80
2019-03-02T01:33:17.106Z,95.70
2019-03-02T01:36:22.151Z,95.50
2019-03-02T01:39:29.223Z,95.40
2019-03-02T01:42:34.010Z,95.40
2019-03-02T01:45:39.119Z,95.20
2019-03-02T01:48:44.172Z,95.10
2019-03-02T01:51:49.357Z,95.00
2019-03-02T01:54:55.823Z,95.00
2019-03-02T01:58:01.110Z,95.00
2019-03-02T02:01:06.474Z,95.00
2019-03-02T02:04:11.655Z,94.90
2019-03-02T02:07:18.034Z,94.80
2019-03-02T02:10:24.000Z,94.90
2019-03-02T02:13:29.134Z,94.70
2019-03-02T02:16:34.154Z,94.80
2019-03-02T02:19:39.653Z,94.90
2019-03-02T02:22:44.919Z,94.90
2019-03-02T02:25:49.950Z,94.80
2019-03-02T02:28:54.991Z,94.80
2019-03-02T02:32:00.091Z,94.80
2019-03-02T02:35:05.376Z,94.80
2019-03-02T02:38:11.293Z,94.70
2019-03-02T02:41:21.994Z,94.70
2019-03-02T02:44:24.037Z,94.60
2019-03-02T02:47:29.152Z,94.50
2019-03-02T02:50:34.208Z,94.50
2019-03-02T02:53:40.218Z,94.60
2019-03-02T02:56:46.140Z,94.40
2019-03-02T02:59:51.262Z,94.20
2019-03-02T03:02:56.300Z,94.10
2019-03-02T03:06:01.487Z,94.00
2019-03-02T03:09:17.921Z,94.00
2019-03-02T03:12:24.744Z,94.00
2019-03-02T03:15:36.922Z,94.10
2019-03-02T03:18:47.013Z,94.00
2019-03-02T03:21:49.523Z,93.90
2019-03-02T03:24:54.484Z,94.00
2019-03-02T03:27:59.595Z,94.10
2019-03-02T03:31:04.756Z,94.00
2019-03-02T03:34:09.848Z,93.90
2019-03-02T03:37:15.104Z,93.70
2019-03-02T03:40:25.164Z,93.70
2019-03-02T03:43:27.015Z,93.60
2019-03-02T03:46:32.049Z,93.70
2019-03-02T03:49:37.135Z,93.60
2019-03-02T03:52:43.995Z,94.00
2019-03-02T03:55:49.067Z,93.60
2019-03-02T03:58:54.193Z,93.50
2019-03-02T04:01:59.304Z,93.30
2019-03-02T04:05:08.476Z,93.30
2019-03-02T04:08:11.396Z,93.20
2019-03-02T04:11:16.499Z,93.50
2019-03-02T04:14:23.380Z,93.20
2019-03-02T04:17:28.267Z,93.20
2019-03-02T04:20:36.493Z,93.20
2019-03-02T04:23:41.600Z,93.30
2019-03-02T04:26:46.640Z,93.30
2019-03-02T04:29:55.309Z,93.40
2019-03-02T04:33:01.669Z,93.30
2019-03-02T04:36:09.424Z,93.40
2019-03-02T04:39:13.761Z,93.50
2019-03-02T04:42:18.736Z,93.50
2019-03-02T04:45:23.715Z,93.50
2019-03-02T04:48:28.811Z,93.70
2019-03-02T04:51:35.143Z,93.70
2019-03-02T04:54:40.658Z,93.70
2019-03-02T04:57:45.631Z,93.70
2019-03-02T05:00:50.615Z,93.60
2019-03-02T05:03:57.195Z,93.60
2019-03-02T05:07:02.452Z,93.60
2019-03-02T05:10:08.865Z,93.60
2019-03-02T05:13:13.903Z,93.70
2019-03-02T05:16:18.949Z,93.50
2019-03-02T05:19:29.944Z,93.50
2019-03-02T05:22:36.620Z,93.50
2019-03-02T05:25:41.739Z,93.40
2019-03-02T05:28:47.454Z,93.50
2019-03-02T05:31:52.566Z,93.40
2019-03-02T05:34:57.628Z,93.30
2019-03-02T05:38:05.578Z,93.10
2019-03-02T05:41:10.754Z,93.00
2019-03-02T05:44:15.876Z,92.90
2019-03-02T05:47:21.036Z,93.00
2019-03-02T05:50:26.550Z,93.10
2019-03-02T05:53:32.907Z,93.10
2019-03-02T05:56:37.883Z,93.00
2019-03-02T05:59:42.876Z,93.00
2019-03-02T06:02:47.983Z,92.90
2019-03-02T06:05:53.584Z,93.00
2019-03-02T06:08:58.586Z,93.00
2019-03-02T06:12:04.841Z,92.90
2019-03-02T06:15:10.942Z,92.80
2019-03-02T06:18:15.994Z,92.90
2019-03-02T06:21:20.969Z,92.80
2019-03-02T06:24:26.839Z,92.70
2019-03-02T06:27:32.191Z,92.90
2019-03-02T06:30:40.549Z,92.50
2019-03-02T06:33:45.124Z,92.60
2019-03-02T06:36:50.563Z,92.50
2019-03-02T06:39:56.308Z,92.40
2019-03-02T06:43:02.014Z,92.30
2019-03-02T06:46:07.200Z,92.20
2019-03-02T06:49:12.644Z,92.10
2019-03-02T06:52:19.157Z,92.00
2019-03-02T06:55:24.709Z,91.90
2019-03-02T06:58:30.497Z,92.00
2019-03-02T07:01:35.519Z,92.00
2019-03-02T07:04:43.038Z,92.00
2019-03-02T07:07:48.142Z,92.00
2019-03-02T07:10:54.503Z,92.00
2019-03-02T07:13:59.891Z,92.00
2019-03-02T07:17:04.978Z,92.00
2019-03-02T07:20:15.954Z,92.00
2019-03-02T07:23:21.120Z,92.00
2019-03-02T07:26:26.150Z,91.70
2019-03-02T07:29:32.027Z,91.80
2019-03-02T07:32:37.315Z,91.80
2019-03-02T07:35:42.302Z,91.90
2019-03-02T07:38:47.248Z,91.40
2019-03-02T07:41:54.205Z,91.20
2019-03-02T07:44:59.386Z,91.40
2019-03-02T07:48:04.691Z,91.10
2019-03-02T07:51:09.731Z,91.00
2019-03-02T07:54:15.751Z,90.90
2019-03-02T07:57:20.718Z,90.80
2019-03-02T08:00:25.827Z,90.70
2019-03-02T08:03:30.956Z,90.60
2019-03-02T08:06:36.145Z,90.60
2019-03-02T08:09:41.171Z,90.50
2019-03-02T08:12:46.210Z,90.50
2019-03-02T08:15:51.337Z,90.40
2019-03-02T08:18:56.555Z,90.40
2019-03-02T08:22:01.677Z,90.50
2019-03-02T08:25:07.847Z,90.50
2019-03-02T08:28:13.039Z,90.40
2019-03-02T08:31:18.218Z,90.40
2019-03-02T08:34:23.163Z,90.30
2019-03-02T08:37:29.793Z,90.20
2019-03-02T08:40:34.967Z,90.00
2019-03-02T08:43:40.035Z,90.00
2019-03-02T08:46:45.078Z,90.00
2019-03-02T08:49:50.031Z,89.60
2019-03-02T08:52:55.130Z,89.70
2019-03-02T08:56:00.172Z,89.50
2019-03-02T08:59:05.278Z,89.20
2019-03-02T09:02:10.398Z,88.60
2019-03-02T09:05:15.662Z,88.60
2019-03-02T09:08:20.771Z,88.60
2019-03-02T09:11:25.815Z,87.90
2019-03-02T09:14:30.855Z,87.50
2019-03-02T09:17:35.987Z,87.10
2019-03-02T09:20:40.960Z,86.80
2019-03-02T09:23:46.019Z,86.80
2019-03-02T09:26:51.136Z,86.60
2019-03-02T09:29:59.034Z,87.00
2019-03-02T09:33:02.883Z,87.00
2019-03-02T09:36:07.899Z,86.70
2019-03-02T09:39:14.522Z,87.00
2019-03-02T09:42:19.563Z,87.60
2019-03-02T09:45:24.658Z,87.90
2019-03-02T09:48:29.685Z,88.00
2019-03-02T09:51:34.645Z,88.00
2019-03-02T09:54:39.809Z,88.00
2019-03-02T09:57:47.539Z,88.20
2019-03-02T10:00:51.708Z,88.00
2019-03-02T10:03:58.792Z,88.00
2019-03-02T10:07:04.345Z,87.90
2019-03-02T10:10:11.094Z,87.20
2019-03-02T10:13:16.141Z,86.20
2019-03-02T10:16:21.247Z,86.00
2019-03-02T10:19:28.922Z,84.80
2019-03-02T10:22:35.202Z,84.60
2019-03-02T10:25:39.895Z,84.40
2019-03-02T10:28:44.895Z,84.50
2019-03-02T10:31:49.868Z,85.80
2019-03-02T10:34:54.828Z,86.30
2019-03-02T10:37:59.859Z,85.10
2019-03-02T10:41:04.967Z,86.40
2019-03-02T10:44:10.083Z,86.90
2019-03-02T10:47:15.207Z,87.20
2019-03-02T10:50:23.270Z,87.90
2019-03-02T10:53:28.178Z,88.30
2019-03-02T10:56:33.354Z,88.20
2019-03-02T10:59:38.397Z,88.50
2019-03-02T11:02:43.512Z,88.60
2019-03-02T11:06:04.698Z,89.10
2019-03-02T11:09:30.456Z,89.40
2019-03-02T11:13:05.283Z,89.50
2019-03-02T11:16:21.879Z,90.20
2019-03-02T11:19:47.410Z,89.70
2019-03-02T11:23:15.719Z,89.80
2019-03-02T11:26:43.666Z,89.10
2019-03-02T11:29:57.147Z,89.00
2019-03-02T11:33:15.477Z,88.90
2019-03-02T11:36:34.928Z,88.90
2019-03-02T11:39:55.247Z,89.30
2019-03-02T11:43:36.739Z,89.60
2019-03-02T11:46:53.746Z,89.60
2019-03-02T11:50:23.901Z,87.60
2019-03-02T11:53:53.785Z,87.00
2019-03-02T11:57:17.794Z,87.70
2019-03-02T12:00:57.907Z,87.10
2019-03-02T12:04:23.583Z,86.60
2019-03-02T12:08:02.564Z,86.60
2019-03-02T12:11:22.783Z,87.00
2019-03-02T12:14:35.172Z,86.80
2019-03-02T12:17:50.016Z,87.10
2019-03-02T12:21:23.226Z,87.30
2019-03-02T12:24:45.828Z,86.80
2019-03-02T12:28:09.072Z,87.10
2019-03-02T12:31:23.544Z,86.40
2019-03-02T12:34:46.394Z,86.50
2019-03-02T12:38:11.672Z,86.50
2019-03-02T12:41:34.760Z,86.10
2019-03-02T12:44:57.873Z,86.20
2019-03-02T12:48:29.386Z,86.00
2019-03-02T12:52:02.631Z,86.00
2019-03-02T12:55:35.885Z,85.90
2019-03-02T12:59:02.844Z,86.40
2019-03-02T13:02:35.950Z,86.70
2019-03-02T13:06:03.131Z,86.90
2019-03-02T13:09:29.996Z,87.20
2019-03-02T13:12:46.126Z,87.50
2019-03-02T13:16:10.304Z,88.20
2019-03-02T13:19:31.551Z,89.30
2019-03-02T13:23:13.559Z,89.70
2019-03-02T13:26:28.478Z,90.10
2019-03-02T13:29:53.303Z,90.60
2019-03-02T13:33:19.701Z,90.90
2019-03-02T13:36:46.594Z,90.90
2019-03-02T13:40:19.637Z,91.00
2019-03-02T13:43:35.184Z,90.80
2019-03-02T13:46:57.983Z,90.70
2019-03-02T13:50:31.235Z,90.70
2019-03-02T13:54:04.140Z,90.50
2019-03-02T13:57:19.682Z,90.10
2019-03-02T14:00:44.538Z,89.70
2019-03-02T14:04:07.392Z,89.40
2019-03-02T14:07:42.398Z,89.20
2019-03-02T14:11:07.129Z,88.80
2019-03-02T14:14:34.254Z,88.50
2019-03-02T14:17:58.673Z,88.50
2019-03-02T14:21:21.254Z,88.70
2019-03-02T14:24:37.541Z,89.00
2019-03-02T14:28:01.932Z,89.40
2019-03-02T14:31:20.143Z,90.00
2019-03-02T14:34:43.846Z,90.60
2019-03-02T14:38:05.278Z,91.20
2019-03-02T14:41:42.091Z,91.80
2019-03-02T14:45:01.106Z,92.30
2019-03-02T14:48:28.403Z,92.50
2019-03-02T14:51:48.179Z,92.80
2019-03-02T14:55:07.568Z,92.90
2019-03-02T14:58:38.703Z,93.10
2019-03-02T15:02:01.508Z,93.60
2019-03-02T15:05:11.959Z,93.20
2019-03-02T15:08:37.433Z,93.00
2019-03-02T15:11:58.544Z,93.00
2019-03-02T15:15:16.501Z,93.00
2019-03-02T15:18:43.383Z,93.40
2019-03-02T15:22:03.837Z,93.10
2019-03-02T15:25:29.724Z,93.10
2019-03-02T15:28:45.368Z,93.10
2019-03-02T15:31:56.566Z,93.00
2019-03-02T15:35:18.020Z,92.80
2019-03-02T15:38:48.046Z,92.70
2019-03-02T15:42:18.006Z,92.70
2019-03-02T15:45:43.901Z,92.60
2019-03-02T15:48:54.499Z,92.50
2019-03-02T15:52:17.459Z,92.50
2019-03-02T15:55:41.301Z,92.70
2019-03-02T15:58:59.586Z,92.70
2019-03-02T16:02:13.927Z,92.50
2019-03-02T16:05:37.967Z,92.50
2019-03-02T16:09:17.046Z,92.40
2019-03-02T16:12:35.757Z,92.40
2019-03-02T16:16:00.036Z,92.30
2019-03-02T16:19:29.098Z,92.20
2019-03-02T16:22:53.111Z,92.10
2019-03-02T16:26:13.105Z,92.10
2019-03-02T16:29:42.667Z,92.10
2019-03-02T16:33:12.946Z,91.90
2019-03-02T16:36:36.246Z,91.80
2019-03-02T16:40:03.131Z,91.70
2019-03-02T16:43:15.408Z,91.70
2019-03-02T16:46:27.243Z,91.60
2019-03-02T16:49:50.159Z,91.50
2019-03-02T16:53:29.715Z,91.50
2019-03-02T16:56:57.584Z,91.40
2019-03-02T17:00:21.430Z,91.50
2019-03-02T17:03:39.068Z,91.50
2019-03-02T17:07:00.332Z,91.50
2019-03-02T17:10:29.048Z,91.50
2019-03-02T17:13:40.033Z,91.50
2019-03-02T17:17:02.817Z,91.50
2019-03-02T17:20:24.552Z,91.50
2019-03-02T17:23:47.586Z,91.40
2019-03-02T17:27:11.698Z,91.40
2019-03-02T17:30:36.657Z,91.40
2019-03-02T17:34:03.563Z,91.30
2019-03-02T17:37:35.880Z,91.20
2019-03-02T17:41:07.758Z,91.20
2019-03-02T17:44:23.569Z,91.10
2019-03-02T17:47:48.097Z,91.10
2019-03-02T17:51:18.459Z,91.10
2019-03-02T17:54:46.536Z,91.00
2019-03-02T17:58:09.863Z,91.00
2019-03-02T18:01:33.879Z,91.00
2019-03-02T18:04:47.827Z,91.00
2019-03-02T18:08:08.795Z,91.00
2019-03-02T18:11:32.648Z,91.00
2019-03-02T18:14:56.670Z,91.00
2019-03-02T18:18:00.972Z,91.00
2019-03-02T18:21:06.052Z,91.00
2019-03-02T18:24:11.056Z,91.00
2019-03-02T18:27:16.107Z,91.00
2019-03-02T18:30:21.569Z,90.90
2019-03-02T18:33:40.007Z,90.90
2019-03-02T18:36:49.965Z,91.00
2019-03-02T18:39:53.778Z,91.10
2019-03-02T18:42:58.907Z,91.80
2019-03-02T18:46:04.056Z,92.00
2019-03-02T18:49:18.624Z,92.20
2019-03-02T18:52:39.066Z,92.40
2019-03-02T18:55:44.268Z,92.50
2019-03-02T18:58:49.383Z,92.70
2019-03-02T19:01:54.356Z,92.90
2019-03-02T19:04:59.407Z,93.00
2019-03-02T19:08:05.059Z,93.20
2019-03-02T19:11:10.629Z,93.30
2019-03-02T19:14:16.905Z,93.50
2019-03-02T19:17:24.508Z,93.60
2019-03-02T19:20:29.511Z,93.90
2019-03-02T19:23:34.663Z,94.00
2019-03-02T19:26:39.841Z,94.00
2019-03-02T19:29:44.802Z,94.00
2019-03-02T19:32:50.081Z,93.90
2019-03-02T19:35:55.184Z,93.70
2019-03-02T19:39:00.568Z,93.60
2019-03-02T19:42:05.813Z,93.50
2019-03-02T19:45:11.133Z,93.50
2019-03-02T19:48:16.329Z,93.40
2019-03-02T19:51:21.350Z,93.40
2019-03-02T19:54:26.520Z,93.30
2019-03-02T19:57:31.706Z,93.20
2019-03-02T20:00:36.969Z,93.10
2019-03-02T20:03:42.052Z,93.00
2019-03-02T20:06:47.322Z,92.90
2019-03-02T20:09:52.473Z,92.80
2019-03-02T20:12:57.691Z,92.70
2019-03-02T20:16:03.099Z,92.70
2019-03-02T20:19:08.356Z,92.60
2019-03-02T20:22:13.398Z,92.50
2019-03-02T20:25:18.537Z,92.30
2019-03-02T20:28:23.581Z,91.60
2019-03-02T20:31:28.750Z,91.50
2019-03-02T20:34:33.815Z,91.30
2019-03-02T20:37:39.003Z,91.30
2019-03-02T20:40:44.121Z,91.20
2019-03-02T20:43:49.171Z,91.10
2019-03-02T20:46:54.444Z,90.90
2019-03-02T20:49:59.556Z,90.90
2019-03-02T20:53:04.674Z,90.80
2019-03-02T20:56:09.815Z,90.80
2019-03-02T20:59:14.790Z,90.80
2019-03-02T21:02:19.801Z,90.80
2019-03-02T21:05:25.111Z,90.80
2019-03-02T21:08:30.101Z,90.80
2019-03-02T21:11:35.157Z,90.70
2019-03-02T21:14:40.369Z,90.60
2019-03-02T21:17:45.432Z,90.50
2019-03-02T21:20:50.843Z,90.40
2019-03-02T21:23:58.065Z,90.40
2019-03-02T21:27:03.198Z,90.40
2019-03-02T21:30:10.764Z,90.40
2019-03-02T21:33:16.035Z,90.40
2019-03-02T21:36:23.745Z,90.40
2019-03-02T21:39:28.871Z,90.20
2019-03-02T21:42:33.996Z,90.20
2019-03-02T21:45:39.159Z,90.20
2019-03-02T21:48:44.348Z,90.20
2019-03-02T21:51:49.722Z,90.20
2019-03-02T21:54:54.865Z,90.20
2019-03-02T21:57:59.937Z,90.30
2019-03-02T22:01:05.068Z,90.30
2019-03-02T22:04:10.042Z,90.20
2019-03-02T22:07:15.030Z,90.20
2019-03-02T22:10:26.081Z,90.20
2019-03-02T22:13:31.130Z,90.20
2019-03-02T22:16:36.182Z,90.20
2019-03-02T22:19:41.541Z,90.10
2019-03-02T22:22:46.584Z,90.00
2019-03-02T22:25:51.631Z,90.10
2019-03-02T22:28:56.747Z,90.00
2019-03-02T22:32:02.079Z,90.00
2019-03-02T22:35:07.347Z,90.00
2019-03-02T22:38:12.524Z,90.00
2019-03-02T22:41:17.743Z,90.00
2019-03-02T22:44:22.871Z,90.10
2019-03-02T22:47:27.853Z,90.20
2019-03-02T22:50:32.983Z,90.20
2019-03-02T22:53:38.005Z,90.30
2019-03-02T22:56:43.050Z,90.30
2019-03-02T23:00:37.650Z,90.40
2019-03-02T23:03:41.325Z,90.50
2019-03-02T23:06:46.502Z,90.60
2019-03-02T23:09:51.472Z,90.70
2019-03-02T23:12:56.655Z,90.80
2019-03-02T23:16:01.870Z,90.90
2019-03-02T23:19:06.959Z,91.10
2019-03-02T23:22:12.080Z,91.20
2019-03-02T23:25:17.126Z,91.30
2019-03-02T23:28:22.169Z,91.50
2019-03-02T23:31:27.276Z,91.60
2019-03-02T23:34:37.126Z,91.80
2019-03-02T23:37:39.107Z,92.00
2019-03-02T23:40:44.224Z,92.20
2019-03-02T23:43:49.173Z,92.30
2019-03-02T23:46:54.289Z,92.40
2019-03-02T23:49:59.351Z,92.50
2019-03-02T23:53:04.535Z,92.50
2019-03-02T23:56:09.633Z,92.60
2019-03-02T23:59:14.596Z,92.70
